• Join FlightAware (Why Join?)
  • Login
  • US Flag 
03:13PM EST


 

Airport Tracker/Info


-or-


 

Live Flight TrackerFlight Track Log ✈ N221TA ✈ 17-Aug-2014 ✈ KAPF - KFXE

Flight Track Log - Related Links

Times and Time Zones

All times are in EDT time to prevent confusion due to time zone crossing. See the N221TA flight status page for this flight to view local times or setup timezone preferences in your user account.

Time Position Orientation Groundspeed Altitude Reporting Facility
EDT Latitude Longitude Course Direction KTS MPH feet Rate Location/Type
02:38PM 26.0975 -81.7067 97° East 134 154 1,900  Level Miami Center
02:39PM 26.0806 -81.6664 115° Southeast 128 147 2,600 240 Climbing Miami Center
02:40PM 26.0997 -81.6283 61° Northeast 142 163 2,500 -60 Descending Miami Center
02:41PM 26.1242 -81.5878 56° Northeast 146 168 2,500  Level Miami Center
02:42PM 26.1616 -81.4946 90° East  Level Estimated
02:42PM 26.1436 -81.5464 62° Northeast 151 174 2,600  Level Miami Center
02:43PM 26.1567 -81.4480 97° East  Level FlightAware Approximate
02:43PM 26.1572 -81.5006 72° East 150 173 2,500  Level Miami Center
02:44PM 26.1611 -81.4594 84° East 139 160 2,500  Level Miami Center
02:45PM 26.1786 -81.4181 65° Northeast 139 160 2,500  Level Miami Center
02:46PM 26.1956 -81.3814 63° Northeast 138 159 2,500  Level Miami Center
02:47PM 26.2108 -81.3397 68° East 138 159 2,500  Level Miami Center
02:48PM 26.2233 -81.2961 72° East 138 159 2,500  Level Miami Center
02:49PM 26.2422 -81.2592 60° Northeast 138 159 2,500  Level Miami Center
02:50PM 26.2550 -81.2214 69° East 137 158 2,500  Level Miami Center
02:51PM 26.2658 -81.1783 74° East 136 157 2,500  Level Miami Center
02:52PM 26.2783 -81.1328 73° East 136 157 2,500  Level Miami Center
02:53PM 26.2867 -81.0872 78° East 138 159 2,500  Level Miami Center
02:54PM 26.2925 -81.0447 81° East 139 160 2,500  Level Miami Center
02:55PM 26.3000 -80.9958 80° East 145 167 2,500  Level Miami Center
02:56PM 26.3092 -80.9567 75° East 139 160 2,500  Level Miami Center
02:57PM 26.3203 -80.9083 76° East 146 168 2,500  Level Miami Center
02:58PM 26.3311 -80.8636 75° East 149 171 2,500 -120 Level Miami Center
02:59PM 26.3414 -80.8175 76° East 145 167 2,300 -360 Descending Miami Center
03:00PM 26.3486 -80.7797 78° East 151 174 1,900 -240 Descending Miami Center
03:01PM 26.3514 -80.7714 70° East 150 173 2,100  Climbing Miami Center
03:01PM 26.3600 -80.7342 76° East 149 171 1,900 -120 Descending Miami Center
03:02PM 26.3711 -80.6931 73° East 144 166 1,900  Level Miami Center
03:03PM 26.3778 -80.6839 51° Northeast 146 168 1,900  Level Miami Center
03:03PM 26.3922 -80.6575 59° Northeast 138 159 1,900  Level Miami Center
03:04PM 26.3981 -80.6469 58° Northeast 143 165 1,900  Level Miami Center
03:04PM 26.4114 -80.6194 62° Northeast 136 157 1,900  Level Miami Center
03:05PM 26.4172 -80.6078 61° Northeast 137 158 1,900  Level Miami Center
03:05PM 26.4222 -80.5856 76° East 127 146 1,900  Level Miami Center
03:06PM 26.4239 -80.5686 84° East 131 151 1,900  Level Miami Center
03:06PM 26.4247 -80.5461 88° East 126 145 1,900  Level Miami Center
03:07PM 26.4264 -80.5269 84° East 130 150 1,900  Level Miami Center
03:07PM 26.4125 -80.5056 126° Southeast 128 147 1,900  Level Miami Center
03:08PM 26.4067 -80.4961 125° Southeast 127 146 1,900  Level Miami Center
03:09PM 26.3806 -80.4686 137° Southeast 127 146 1,900  Level Miami Center
03:10PM 26.3581 -80.4433 135° Southeast 134 154 1,900  Level Miami Center
03:10PM 26.3525 -80.4356 129° Southeast 132 152 1,900  Level Miami Center
03:10PM 26.3364 -80.4183 136° Southeast 135 155 1,900  Level Miami Center
03:11PM 26.3278 -80.4042 124° Southeast 133 153 1,900  Level Miami Center
03:11PM 26.3133 -80.3886 136° Southeast 138 159 1,900  Level Miami Center
03:12PM 26.3000 -80.3697 128° Southeast 135 155 1,900  Level Miami Center
03:12PM 26.2883 -80.3517 126° Southeast 135 155 1,900  Level Miami Center
03:13PM 26.2808 -80.3353 117° Southeast 135 155 1,900 -240 Level Miami Center
03:13PM 26.2719 -80.3156 117° Southeast 133 153 1,700 -240 Descending Miami Center
03:14PM 26.2614 -80.2958 121° Southeast 134 154 1,700 -180 Level Miami Center
03:15PM 26.2492 -80.2767 125° Southeast 135 155 1,500 -240 Descending Miami Center
03:15PM 26.2453 -80.2686 118° Southeast 135 155 1,500 -600 Level Miami Center
03:16PM 26.2256 -80.2517 142° Southeast 136 157 900 -600 Descending Miami Center
03:16PM 26.2100 -80.2464 163° South 138 159 900  Level Miami Center
03:17PM 26.1889 -80.2372 159° South 123 142 900  Level Miami Center
03:17PM 26.1819 -80.2261 125° Southeast 126 145 900 -120 Level Miami Center
03:18PM 26.1806 -80.1994 93° East 129 148 800 -120 Descending Miami Center
03:18PM 26.1811 -80.1814 88° East 131 151 800 60 Level Miami Center
03:19PM 26.1828 -80.1647 84° East 124 143 900 -120 Climbing Miami Center
03:19PM 26.1839 -80.1414 87° East 124 143 700 -420 Descending Miami Center
03:20PM 26.1967 -80.1425 356° North 107 123 500 -600 Descending Miami Center
03:20PM 26.1997 -80.1561 284° West 94 108 100 1,860 Descending Miami Center
03:21PM 26.2003 -80.1819 271° West 92 106 3,500 3,240 Climbing Miami Center
03:23PM 26.1973 -80.1707 180° South  Level Estimated